Montour, IA (50173)

12:01 PM CST on November 24, 2014 (GMT -0600)
Grinnell Weather.com | Change Station
CLOSE
Current Station
Personal Weather Station
Location: Grinnell, IA
Elevation: 1014 ft
Nearby Weather Stations

Elev 1014 ft 41.75 °N, 92.70 °W | Updated 4 seconds ago

Overcast
Overcast
23.8 °F
Feels Like 11 °F
N
14.5
Wind Variable Wind from WNW
Gusts 19.6 mph

Today
High -- | Low -- °F
--% Chance of Precip.
Yesterday
High -- | Low -- °F
Precip. -- in
7:11 AM 4:43 PM
Waxing Crescent, 6% visible
Pressure 29.58 in
Visibility 10.0 miles
Clouds Overcast 1800 ft
Windchill 11 °F
Dew Point 21 °F
Humidity 89%
Rainfall 0.00 in
Snow Depth Not available.
UV 0.6 out of 12
Pollen .10 out of 12
Air Quality Not available.
Flu Activity Not available.
METAR KMIW 241753Z AUTO 29024G28KT 10SM OVC018 M04/M07 A2955 RMK AO2 PK WND 29036/1700 SLP016 60000 T10441072 11028 21050 51028

More Conditions Fewer Conditions

Pressure 29.58 in
Visibility 10.0 miles
Clouds Overcast 1800 ft
Windchill 11 °F
Dew Point 21 °F
Humidity 89%
Rainfall 0.00 in
Snow Depth Not available.
UV 0.6 out of 12
Pollen .10 out of 12
Air Quality Not available.
Flu Activity Not available.
METAR KMIW 241753Z AUTO 29024G28KT 10SM OVC018 M04/M07 A2955 RMK AO2 PK WND 29036/1700 SLP016 60000 T10441072 11028 21050 51028

More Conditions Fewer Conditions

10-Day Weather Forecast

Almanac

Astronomy

Nov. 24, 2014 Rise Set
Actual Time
Civil Twilight
Nautical Twilight
Astronomical Twilight
Moon
Length of Visible Light
Length of Day
Tomorrow will be .
, % of the Moon is Illuminated

Today's Extremes

State Highs State Lows

Community

WunderPhotos

Upload Photos

1,773,381 photos uploaded!

WunderBlogs® & News

Nearby

Air Quality

  Air Quality AQ Index Pollutant
Not available.

Snow Depth

Station Depth Elevation

Earthquake Activity

City Distance Mag. Time & Date
Minimum magnitude displayed is 2.5.

Coastal Water Temperatures

Place Temperature

Nearby Weather Stations